Hiko, Nevada
Current Conditions -  °F | °C
As of 11:28 AM on Wednesday 17 Dec 2014 (Local Time) from KINS Reporting Station
Light Rain Light Rain  
Wind Chill: 45°   Ceiling: 2200
Heat Index: 45°   Visibility: 9mi
Dew Point: 39°   Wind: 0mph
Humidity: 81%   Direction: NA
Pressure: 30.03"   Gusts: NA
Location:  37.6°N, 115.23°W
Report Text: KINS 171928Z AUTO 00000KT 9SM -RA FEW014 OVC022 07/04 A3003 RMK AO2 DZB1859E02RAB02 OVC V BKN
Loading
Personal Weather Stations






























Interactive Weather Map New forecast layout! Learn more

10-Day Weather Forecast

Advertisements
Track Severe Weather on mobile